TimeCST,TemperatureF,Dew PointF,Humidity,Sea Level PressureIn,VisibilityMPH,Wind Direction,Wind SpeedMPH,Gust SpeedMPH,PrecipitationIn,Events,Conditions,WindDirDegrees,DateUTC
12:54 AM,28.9,25.0,85,30.16,7.0,East,5.8,-,N/A,,Clear,100,2013-01-08 06:54:00
1:54 AM,28.9,26.1,89,30.16,6.0,ESE,5.8,-,N/A,,Clear,110,2013-01-08 07:54:00
2:54 AM,28.0,24.1,85,30.17,6.0,East,8.1,-,N/A,,Clear,100,2013-01-08 08:54:00
3:54 AM,27.0,23.0,85,30.18,6.0,East,5.8,-,N/A,,Clear,80,2013-01-08 09:54:00
4:54 AM,25.0,21.9,88,30.18,6.0,East,6.9,-,N/A,,Clear,100,2013-01-08 10:54:00
5:54 AM,25.0,21.9,88,30.19,6.0,East,5.8,-,N/A,,Clear,90,2013-01-08 11:54:00
6:54 AM,27.0,24.1,89,30.20,6.0,East,6.9,-,N/A,,Clear,80,2013-01-08 12:54:00
7:54 AM,28.9,25.0,85,30.20,4.0,East,5.8,-,N/A,,Clear,90,2013-01-08 13:54:00
8:54 AM,32.0,28.0,85,30.22,4.0,East,5.8,-,N/A,,Clear,90,2013-01-08 14:54:00
9:54 AM,36.0,28.9,76,30.22,6.0,East,3.5,-,N/A,,Haze,100,2013-01-08 15:54:00
10:54 AM,39.9,30.0,68,30.19,9.0,SE,3.5,-,N/A,,Clear,130,2013-01-08 16:54:00
11:54 AM,44.1,32.0,63,30.16,9.0,East,5.8,-,N/A,,Clear,80,2013-01-08 17:54:00
12:54 PM,48.0,30.9,52,30.14,10.0,Variable,3.5,-,N/A,,Clear,0,2013-01-08 18:54:00
1:54 PM,50.0,33.1,52,30.10,10.0,East,8.1,-,N/A,,Clear,100,2013-01-08 19:54:00
2:54 PM,53.1,28.0,38,30.09,10.0,SSE,11.5,-,N/A,,Clear,150,2013-01-08 20:54:00
3:54 PM,50.0,30.0,46,30.09,10.0,SE,9.2,-,N/A,,Clear,140,2013-01-08 21:54:00
4:54 PM,44.1,30.9,60,30.10,10.0,SE,10.4,-,N/A,,Partly Cloudy,130,2013-01-08 22:54:00
5:54 PM,42.1,30.9,65,30.10,10.0,SE,10.4,-,N/A,,Clear,130,2013-01-08 23:54:00
6:54 PM,39.9,32.0,73,30.11,10.0,ESE,6.9,-,N/A,,Overcast,120,2013-01-09 00:54:00
7:54 PM,43.0,32.0,65,30.12,10.0,SSE,9.2,-,N/A,,Overcast,150,2013-01-09 01:54:00
8:54 PM,43.0,33.1,68,30.12,10.0,SSE,8.1,-,N/A,,Overcast,150,2013-01-09 02:54:00
9:54 PM,42.1,33.1,70,30.13,10.0,SSE,8.1,-,N/A,,Overcast,150,2013-01-09 03:54:00
11:54 PM,41.0,33.1,73,30.17,10.0,Calm,Calm,-,N/A,,Overcast,0,2013-01-09 05:54:00